Grand Island, Oregon
Current Conditions -  °F | °C
As of 12:53 AM on Friday 24 Oct 2014 (Local Time) from KMMV Reporting Station
Clear Clear  
Wind Chill: 52°   Ceiling: Unl
Heat Index: 52°   Visibility: 10mi
Dew Point: 50°   Wind: 3mph
Humidity: 93%   Direction: 350°N
Pressure: 30.02"   Gusts: NA
Location:  45.1812°N, 123.076°W
Report Text: KMMV 240753Z AUTO 35003KT 10SM CLR 11/10 A3002 RMK AO2 SLP165 T01110100 401610106
Loading
Personal Weather Stations






























Interactive Weather Map
Tropical Storm Tracking
New forecast layout! Learn more

10-Day Weather Forecast

Advertisements
Track Severe Weather on mobile